sensor_id;sensor_type;location;lat;lon;timestamp;P1;durP1;ratioP1;P2;durP2;ratioP2
7883;SDS011;3987;51.458;7.238;2022-10-18T00:01:57;3.63;;;3.40;;
7883;SDS011;3987;51.458;7.238;2022-10-18T00:04:23;3.60;;;3.50;;
7883;SDS011;3987;51.458;7.238;2022-10-18T00:06:48;6.07;;;3.30;;
7883;SDS011;3987;51.458;7.238;2022-10-18T00:09:14;4.07;;;3.57;;
7883;SDS011;3987;51.458;7.238;2022-10-18T00:11:39;4.03;;;3.60;;
7883;SDS011;3987;51.458;7.238;2022-10-18T00:14:05;3.40;;;3.20;;
7883;SDS011;3987;51.458;7.238;2022-10-18T00:16:30;3.10;;;2.90;;
7883;SDS011;3987;51.458;7.238;2022-10-18T00:18:56;3.40;;;3.27;;
7883;SDS011;3987;51.458;7.238;2022-10-18T00:21:22;3.27;;;3.17;;
7883;SDS011;3987;51.458;7.238;2022-10-18T00:23:49;4.10;;;3.20;;
7883;SDS011;3987;51.458;7.238;2022-10-18T00:26:20;4.03;;;3.40;;
7883;SDS011;3987;51.458;7.238;2022-10-18T00:28:54;3.50;;;3.40;;
7883;SDS011;3987;51.458;7.238;2022-10-18T00:31:25;3.53;;;3.33;;
7883;SDS011;3987;51.458;7.238;2022-10-18T00:33:53;3.47;;;3.23;;
7883;SDS011;3987;51.458;7.238;2022-10-18T00:36:33;3.60;;;3.30;;
7883;SDS011;3987;51.458;7.238;2022-10-18T00:38:59;3.70;;;3.40;;
7883;SDS011;3987;51.458;7.238;2022-10-18T00:41:26;3.27;;;3.17;;
7883;SDS011;3987;51.458;7.238;2022-10-18T00:46:22;3.17;;;2.97;;
7883;SDS011;3987;51.458;7.238;2022-10-18T00:48:49;3.30;;;3.10;;
7883;SDS011;3987;51.458;7.238;2022-10-18T00:51:15;3.30;;;3.10;;
7883;SDS011;3987;51.458;7.238;2022-10-18T00:53:43;3.60;;;3.50;;
7883;SDS011;3987;51.458;7.238;2022-10-18T00:56:08;3.33;;;3.23;;
7883;SDS011;3987;51.458;7.238;2022-10-18T00:58:34;3.43;;;2.97;;
7883;SDS011;3987;51.458;7.238;2022-10-18T01:00:59;3.83;;;3.40;;
7883;SDS011;3987;51.458;7.238;2022-10-18T01:03:25;3.07;;;2.80;;
7883;SDS011;3987;51.458;7.238;2022-10-18T01:05:50;3.87;;;3.67;;
7883;SDS011;3987;51.458;7.238;2022-10-18T01:13:36;3.37;;;3.17;;
7883;SDS011;3987;51.458;7.238;2022-10-18T01:16:10;3.43;;;3.13;;
7883;SDS011;3987;51.458;7.238;2022-10-18T01:18:48;4.40;;;3.23;;
7883;SDS011;3987;51.458;7.238;2022-10-18T01:21:24;3.73;;;3.47;;
7883;SDS011;3987;51.458;7.238;2022-10-18T01:24:14;3.90;;;3.00;;
7883;SDS011;3987;51.458;7.238;2022-10-18T01:32:18;4.07;;;3.77;;
7883;SDS011;3987;51.458;7.238;2022-10-18T01:34:47;3.40;;;3.20;;
7883;SDS011;3987;51.458;7.238;2022-10-18T01:37:13;3.37;;;2.87;;
7883;SDS011;3987;51.458;7.238;2022-10-18T01:39:41;2.80;;;2.70;;
7883;SDS011;3987;51.458;7.238;2022-10-18T01:42:09;3.33;;;3.13;;
7883;SDS011;3987;51.458;7.238;2022-10-18T01:44:36;4.93;;;3.30;;
7883;SDS011;3987;51.458;7.238;2022-10-18T01:47:02;2.70;;;2.60;;
7883;SDS011;3987;51.458;7.238;2022-10-18T01:49:29;3.10;;;2.90;;
7883;SDS011;3987;51.458;7.238;2022-10-18T01:51:54;2.73;;;2.17;;
7883;SDS011;3987;51.458;7.238;2022-10-18T01:54:24;2.93;;;2.83;;
7883;SDS011;3987;51.458;7.238;2022-10-18T01:57:00;3.20;;;2.87;;
7883;SDS011;3987;51.458;7.238;2022-10-18T01:59:45;3.43;;;3.10;;
7883;SDS011;3987;51.458;7.238;2022-10-18T02:10:20;3.00;;;3.00;;
7883;SDS011;3987;51.458;7.238;2022-10-18T02:12:49;3.30;;;3.10;;
7883;SDS011;3987;51.458;7.238;2022-10-18T02:15:17;3.00;;;2.90;;
7883;SDS011;3987;51.458;7.238;2022-10-18T02:17:45;3.47;;;3.17;;
7883;SDS011;3987;51.458;7.238;2022-10-18T02:20:11;3.43;;;3.13;;
7883;SDS011;3987;51.458;7.238;2022-10-18T02:22:37;4.07;;;3.87;;
7883;SDS011;3987;51.458;7.238;2022-10-18T02:25:05;3.53;;;3.10;;
7883;SDS011;3987;51.458;7.238;2022-10-18T02:27:34;3.47;;;3.17;;
7883;SDS011;3987;51.458;7.238;2022-10-18T02:30:00;3.23;;;2.97;;
7883;SDS011;3987;51.458;7.238;2022-10-18T02:32:29;3.17;;;2.60;;
7883;SDS011;3987;51.458;7.238;2022-10-18T02:35:00;3.57;;;3.37;;
7883;SDS011;3987;51.458;7.238;2022-10-18T02:37:36;2.87;;;2.83;;
7883;SDS011;3987;51.458;7.238;2022-10-18T02:40:03;2.93;;;2.73;;
7883;SDS011;3987;51.458;7.238;2022-10-18T02:42:33;4.30;;;3.00;;
7883;SDS011;3987;51.458;7.238;2022-10-18T02:44:59;2.67;;;2.57;;
7883;SDS011;3987;51.458;7.238;2022-10-18T02:47:25;3.30;;;3.10;;
7883;SDS011;3987;51.458;7.238;2022-10-18T02:49:50;5.23;;;3.27;;
7883;SDS011;3987;51.458;7.238;2022-10-18T02:52:16;3.40;;;3.30;;
7883;SDS011;3987;51.458;7.238;2022-10-18T02:54:41;3.50;;;3.20;;
7883;SDS011;3987;51.458;7.238;2022-10-18T02:57:06;3.33;;;3.10;;
7883;SDS011;3987;51.458;7.238;2022-10-18T02:59:32;3.90;;;3.53;;
7883;SDS011;3987;51.458;7.238;2022-10-18T03:01:58;2.77;;;2.63;;
7883;SDS011;3987;51.458;7.238;2022-10-18T03:04:23;3.40;;;3.00;;
7883;SDS011;3987;51.458;7.238;2022-10-18T03:06:48;3.73;;;3.43;;
7883;SDS011;3987;51.458;7.238;2022-10-18T03:09:14;3.03;;;2.93;;
7883;SDS011;3987;51.458;7.238;2022-10-18T03:11:39;3.00;;;2.80;;
7883;SDS011;3987;51.458;7.238;2022-10-18T03:14:04;2.97;;;2.87;;
7883;SDS011;3987;51.458;7.238;2022-10-18T03:16:30;3.00;;;2.90;;
7883;SDS011;3987;51.458;7.238;2022-10-18T03:18:55;3.83;;;3.50;;
7883;SDS011;3987;51.458;7.238;2022-10-18T03:21:21;3.57;;;3.40;;
7883;SDS011;3987;51.458;7.238;2022-10-18T03:23:46;2.77;;;2.77;;
7883;SDS011;3987;51.458;7.238;2022-10-18T03:26:11;3.90;;;2.90;;
7883;SDS011;3987;51.458;7.238;2022-10-18T03:28:37;2.87;;;2.77;;
7883;SDS011;3987;51.458;7.238;2022-10-18T03:31:03;3.50;;;3.40;;
7883;SDS011;3987;51.458;7.238;2022-10-18T03:33:30;3.00;;;2.90;;
7883;SDS011;3987;51.458;7.238;2022-10-18T03:35:56;3.10;;;2.83;;
7883;SDS011;3987;51.458;7.238;2022-10-18T03:38:21;3.17;;;3.00;;
7883;SDS011;3987;51.458;7.238;2022-10-18T03:40:47;2.70;;;2.67;;
7883;SDS011;3987;51.458;7.238;2022-10-18T03:43:12;2.97;;;2.87;;
7883;SDS011;3987;51.458;7.238;2022-10-18T03:45:38;3.40;;;3.30;;
7883;SDS011;3987;51.458;7.238;2022-10-18T03:48:04;2.80;;;2.70;;
7883;SDS011;3987;51.458;7.238;2022-10-18T03:50:29;4.20;;;3.30;;
7883;SDS011;3987;51.458;7.238;2022-10-18T03:52:55;3.30;;;3.10;;
7883;SDS011;3987;51.458;7.238;2022-10-18T03:55:20;5.30;;;4.07;;
7883;SDS011;3987;51.458;7.238;2022-10-18T03:57:46;4.50;;;4.40;;
7883;SDS011;3987;51.458;7.238;2022-10-18T04:00:11;4.00;;;3.83;;
7883;SDS011;3987;51.458;7.238;2022-10-18T04:02:37;4.47;;;4.17;;
7883;SDS011;3987;51.458;7.238;2022-10-18T04:05:02;4.03;;;3.80;;
7883;SDS011;3987;51.458;7.238;2022-10-18T04:07:28;4.07;;;3.87;;
7883;SDS011;3987;51.458;7.238;2022-10-18T04:09:53;4.13;;;3.93;;
7883;SDS011;3987;51.458;7.238;2022-10-18T04:12:18;7.80;;;7.60;;
7883;SDS011;3987;51.458;7.238;2022-10-18T04:14:44;5.53;;;5.43;;
7883;SDS011;3987;51.458;7.238;2022-10-18T04:17:09;5.43;;;5.10;;
7883;SDS011;3987;51.458;7.238;2022-10-18T04:19:35;5.77;;;5.57;;
7883;SDS011;3987;51.458;7.238;2022-10-18T04:22:00;4.40;;;4.30;;
7883;SDS011;3987;51.458;7.238;2022-10-18T04:24:25;5.07;;;4.80;;
7883;SDS011;3987;51.458;7.238;2022-10-18T04:26:51;4.10;;;3.87;;
7883;SDS011;3987;51.458;7.238;2022-10-18T04:29:16;4.87;;;4.50;;
7883;SDS011;3987;51.458;7.238;2022-10-18T04:31:42;5.27;;;5.07;;
7883;SDS011;3987;51.458;7.238;2022-10-18T04:34:08;6.20;;;5.67;;
7883;SDS011;3987;51.458;7.238;2022-10-18T04:36:33;6.63;;;6.13;;
7883;SDS011;3987;51.458;7.238;2022-10-18T04:38:59;6.80;;;6.37;;
7883;SDS011;3987;51.458;7.238;2022-10-18T04:41:24;6.20;;;5.80;;
7883;SDS011;3987;51.458;7.238;2022-10-18T04:43:50;8.53;;;7.17;;
7883;SDS011;3987;51.458;7.238;2022-10-18T04:46:15;8.47;;;7.63;;
7883;SDS011;3987;51.458;7.238;2022-10-18T04:48:40;8.17;;;7.47;;
7883;SDS011;3987;51.458;7.238;2022-10-18T04:51:06;9.53;;;8.50;;
7883;SDS011;3987;51.458;7.238;2022-10-18T04:53:31;11.20;;;9.17;;
7883;SDS011;3987;51.458;7.238;2022-10-18T04:55:57;11.77;;;8.60;;
7883;SDS011;3987;51.458;7.238;2022-10-18T04:58:22;12.33;;;9.20;;
7883;SDS011;3987;51.458;7.238;2022-10-18T05:00:48;11.93;;;9.93;;
7883;SDS011;3987;51.458;7.238;2022-10-18T05:03:14;14.20;;;10.43;;
7883;SDS011;3987;51.458;7.238;2022-10-18T05:05:40;16.30;;;10.03;;
7883;SDS011;3987;51.458;7.238;2022-10-18T05:08:06;17.77;;;10.83;;
7883;SDS011;3987;51.458;7.238;2022-10-18T05:10:31;16.77;;;10.97;;
7883;SDS011;3987;51.458;7.238;2022-10-18T05:12:56;10.53;;;9.53;;
7883;SDS011;3987;51.458;7.238;2022-10-18T05:15:22;12.93;;;11.17;;
7883;SDS011;3987;51.458;7.238;2022-10-18T05:17:47;13.67;;;10.97;;
7883;SDS011;3987;51.458;7.238;2022-10-18T05:20:13;12.57;;;11.17;;
7883;SDS011;3987;51.458;7.238;2022-10-18T05:22:38;13.50;;;10.73;;
7883;SDS011;3987;51.458;7.238;2022-10-18T05:25:04;13.73;;;10.93;;
7883;SDS011;3987;51.458;7.238;2022-10-18T05:27:29;16.37;;;11.93;;
7883;SDS011;3987;51.458;7.238;2022-10-18T05:29:55;16.40;;;12.17;;
7883;SDS011;3987;51.458;7.238;2022-10-18T05:32:20;16.83;;;11.27;;
7883;SDS011;3987;51.458;7.238;2022-10-18T05:34:46;12.70;;;10.30;;
7883;SDS011;3987;51.458;7.238;2022-10-18T05:37:12;12.87;;;10.87;;
7883;SDS011;3987;51.458;7.238;2022-10-18T05:39:37;17.20;;;11.47;;
7883;SDS011;3987;51.458;7.238;2022-10-18T05:42:03;14.47;;;10.93;;
7883;SDS011;3987;51.458;7.238;2022-10-18T05:44:29;16.83;;;11.47;;
7883;SDS011;3987;51.458;7.238;2022-10-18T05:46:54;14.53;;;11.47;;
7883;SDS011;3987;51.458;7.238;2022-10-18T05:49:20;19.63;;;12.87;;
7883;SDS011;3987;51.458;7.238;2022-10-18T05:51:45;16.73;;;11.73;;
7883;SDS011;3987;51.458;7.238;2022-10-18T05:54:11;15.87;;;12.77;;
7883;SDS011;3987;51.458;7.238;2022-10-18T05:56:37;19.03;;;12.70;;
7883;SDS011;3987;51.458;7.238;2022-10-18T05:59:02;20.33;;;13.10;;
7883;SDS011;3987;51.458;7.238;2022-10-18T06:01:34;15.40;;;11.53;;
7883;SDS011;3987;51.458;7.238;2022-10-18T06:04:00;17.53;;;11.30;;
7883;SDS011;3987;51.458;7.238;2022-10-18T06:06:26;20.47;;;12.97;;
7883;SDS011;3987;51.458;7.238;2022-10-18T06:08:51;15.97;;;12.47;;
7883;SDS011;3987;51.458;7.238;2022-10-18T06:11:17;20.07;;;12.87;;
7883;SDS011;3987;51.458;7.238;2022-10-18T06:13:44;18.90;;;12.80;;
7883;SDS011;3987;51.458;7.238;2022-10-18T06:16:11;18.67;;;14.93;;
7883;SDS011;3987;51.458;7.238;2022-10-18T06:18:38;17.57;;;13.47;;
7883;SDS011;3987;51.458;7.238;2022-10-18T06:21:03;15.83;;;13.57;;
7883;SDS011;3987;51.458;7.238;2022-10-18T06:23:29;18.63;;;13.57;;
7883;SDS011;3987;51.458;7.238;2022-10-18T06:26:01;18.87;;;13.47;;
7883;SDS011;3987;51.458;7.238;2022-10-18T06:28:28;23.13;;;14.83;;
7883;SDS011;3987;51.458;7.238;2022-10-18T06:30:54;24.30;;;15.57;;
7883;SDS011;3987;51.458;7.238;2022-10-18T06:33:20;27.27;;;15.23;;
7883;SDS011;3987;51.458;7.238;2022-10-18T06:35:59;23.07;;;15.43;;
7883;SDS011;3987;51.458;7.238;2022-10-18T06:38:26;23.83;;;14.97;;
7883;SDS011;3987;51.458;7.238;2022-10-18T06:40:52;17.37;;;13.40;;
7883;SDS011;3987;51.458;7.238;2022-10-18T06:43:18;18.73;;;14.10;;
7883;SDS011;3987;51.458;7.238;2022-10-18T06:45:43;24.87;;;14.47;;
7883;SDS011;3987;51.458;7.238;2022-10-18T06:48:09;21.07;;;14.47;;
7883;SDS011;3987;51.458;7.238;2022-10-18T06:50:34;19.90;;;13.93;;
7883;SDS011;3987;51.458;7.238;2022-10-18T06:53:00;19.03;;;14.30;;
7883;SDS011;3987;51.458;7.238;2022-10-18T06:55:26;17.47;;;14.77;;
7883;SDS011;3987;51.458;7.238;2022-10-18T06:57:52;24.27;;;15.13;;
7883;SDS011;3987;51.458;7.238;2022-10-18T07:00:17;24.23;;;16.63;;
7883;SDS011;3987;51.458;7.238;2022-10-18T07:02:42;30.40;;;17.40;;
7883;SDS011;3987;51.458;7.238;2022-10-18T07:05:08;25.67;;;16.37;;
7883;SDS011;3987;51.458;7.238;2022-10-18T07:07:35;24.63;;;17.37;;
7883;SDS011;3987;51.458;7.238;2022-10-18T07:10:00;31.33;;;17.07;;
7883;SDS011;3987;51.458;7.238;2022-10-18T07:12:26;25.07;;;17.10;;
7883;SDS011;3987;51.458;7.238;2022-10-18T07:14:51;22.30;;;16.73;;
7883;SDS011;3987;51.458;7.238;2022-10-18T07:17:16;25.70;;;17.20;;
7883;SDS011;3987;51.458;7.238;2022-10-18T07:19:42;27.90;;;17.57;;
7883;SDS011;3987;51.458;7.238;2022-10-18T07:22:07;31.37;;;19.03;;
7883;SDS011;3987;51.458;7.238;2022-10-18T07:24:33;24.90;;;17.17;;
7883;SDS011;3987;51.458;7.238;2022-10-18T07:26:58;30.87;;;18.43;;
7883;SDS011;3987;51.458;7.238;2022-10-18T07:29:23;27.13;;;17.93;;
7883;SDS011;3987;51.458;7.238;2022-10-18T07:31:49;26.00;;;17.07;;
7883;SDS011;3987;51.458;7.238;2022-10-18T07:34:14;23.30;;;17.10;;
7883;SDS011;3987;51.458;7.238;2022-10-18T07:36:40;30.13;;;19.20;;
7883;SDS011;3987;51.458;7.238;2022-10-18T07:39:05;27.03;;;18.13;;
7883;SDS011;3987;51.458;7.238;2022-10-18T07:41:31;32.97;;;18.33;;
7883;SDS011;3987;51.458;7.238;2022-10-18T07:43:58;28.83;;;18.23;;
7883;SDS011;3987;51.458;7.238;2022-10-18T07:46:24;32.57;;;18.67;;
7883;SDS011;3987;51.458;7.238;2022-10-18T07:48:49;29.23;;;18.50;;
7883;SDS011;3987;51.458;7.238;2022-10-18T07:51:15;25.67;;;16.93;;
7883;SDS011;3987;51.458;7.238;2022-10-18T07:53:42;23.93;;;18.17;;
7883;SDS011;3987;51.458;7.238;2022-10-18T07:56:08;25.47;;;19.00;;
7883;SDS011;3987;51.458;7.238;2022-10-18T07:58:39;32.77;;;18.20;;
7883;SDS011;3987;51.458;7.238;2022-10-18T08:01:06;33.53;;;18.57;;
7883;SDS011;3987;51.458;7.238;2022-10-18T08:03:32;33.20;;;21.87;;
7883;SDS011;3987;51.458;7.238;2022-10-18T08:05:58;32.77;;;22.03;;
7883;SDS011;3987;51.458;7.238;2022-10-18T08:08:24;42.27;;;22.53;;
7883;SDS011;3987;51.458;7.238;2022-10-18T08:10:49;39.23;;;22.60;;
7883;SDS011;3987;51.458;7.238;2022-10-18T08:13:15;41.43;;;21.40;;
7883;SDS011;3987;51.458;7.238;2022-10-18T08:15:41;36.73;;;22.17;;
7883;SDS011;3987;51.458;7.238;2022-10-18T08:18:06;38.00;;;23.43;;
7883;SDS011;3987;51.458;7.238;2022-10-18T08:20:32;36.53;;;22.80;;
7883;SDS011;3987;51.458;7.238;2022-10-18T08:22:57;38.30;;;22.87;;
7883;SDS011;3987;51.458;7.238;2022-10-18T08:25:23;42.83;;;24.47;;
7883;SDS011;3987;51.458;7.238;2022-10-18T08:27:49;41.67;;;23.70;;
7883;SDS011;3987;51.458;7.238;2022-10-18T08:30:14;37.73;;;23.30;;
7883;SDS011;3987;51.458;7.238;2022-10-18T08:32:40;41.50;;;23.60;;
7883;SDS011;3987;51.458;7.238;2022-10-18T08:35:05;42.03;;;25.63;;
7883;SDS011;3987;51.458;7.238;2022-10-18T08:37:31;47.67;;;25.27;;
7883;SDS011;3987;51.458;7.238;2022-10-18T08:39:56;49.67;;;26.90;;
7883;SDS011;3987;51.458;7.238;2022-10-18T08:44:51;48.30;;;27.47;;
7883;SDS011;3987;51.458;7.238;2022-10-18T08:47:18;50.70;;;27.67;;
7883;SDS011;3987;51.458;7.238;2022-10-18T08:49:47;60.60;;;30.67;;
7883;SDS011;3987;51.458;7.238;2022-10-18T08:52:15;59.27;;;29.50;;
7883;SDS011;3987;51.458;7.238;2022-10-18T08:57:36;58.53;;;31.23;;
7883;SDS011;3987;51.458;7.238;2022-10-18T09:00:15;63.37;;;33.23;;
7883;SDS011;3987;51.458;7.238;2022-10-18T09:02:45;62.50;;;33.30;;
7883;SDS011;3987;51.458;7.238;2022-10-18T09:05:22;63.07;;;33.67;;
7883;SDS011;3987;51.458;7.238;2022-10-18T09:16:20;63.63;;;34.70;;
7883;SDS011;3987;51.458;7.238;2022-10-18T09:18:56;63.60;;;33.40;;
7883;SDS011;3987;51.458;7.238;2022-10-18T09:26:51;64.77;;;35.43;;
7883;SDS011;3987;51.458;7.238;2022-10-18T09:37:38;58.97;;;32.37;;
7883;SDS011;3987;51.458;7.238;2022-10-18T09:40:24;60.07;;;33.43;;
7883;SDS011;3987;51.458;7.238;2022-10-18T09:42:57;64.83;;;33.97;;
7883;SDS011;3987;51.458;7.238;2022-10-18T09:53:26;61.93;;;34.47;;
7883;SDS011;3987;51.458;7.238;2022-10-18T09:56:05;62.13;;;33.90;;
7883;SDS011;3987;51.458;7.238;2022-10-18T09:58:55;67.97;;;35.13;;
7883;SDS011;3987;51.458;7.238;2022-10-18T10:01:29;63.97;;;35.33;;
7883;SDS011;3987;51.458;7.238;2022-10-18T10:03:55;61.10;;;33.83;;
7883;SDS011;3987;51.458;7.238;2022-10-18T10:06:30;61.77;;;34.83;;
7883;SDS011;3987;51.458;7.238;2022-10-18T10:11:33;63.10;;;34.10;;
7883;SDS011;3987;51.458;7.238;2022-10-18T10:14:33;63.43;;;34.43;;
7883;SDS011;3987;51.458;7.238;2022-10-18T10:16:57;58.10;;;33.20;;
7883;SDS011;3987;51.458;7.238;2022-10-18T10:21:57;60.27;;;33.20;;
7883;SDS011;3987;51.458;7.238;2022-10-18T10:24:36;54.23;;;32.87;;
7883;SDS011;3987;51.458;7.238;2022-10-18T10:27:14;62.47;;;34.90;;
7883;SDS011;3987;51.458;7.238;2022-10-18T10:32:11;54.60;;;33.40;;
7883;SDS011;3987;51.458;7.238;2022-10-18T10:34:41;62.53;;;37.90;;
7883;SDS011;3987;51.458;7.238;2022-10-18T10:37:23;62.70;;;35.33;;
7883;SDS011;3987;51.458;7.238;2022-10-18T10:40:04;57.30;;;36.30;;
7883;SDS011;3987;51.458;7.238;2022-10-18T10:42:51;52.20;;;33.37;;
7883;SDS011;3987;51.458;7.238;2022-10-18T10:45:24;55.43;;;35.23;;
7883;SDS011;3987;51.458;7.238;2022-10-18T10:47:51;53.10;;;33.30;;
7883;SDS011;3987;51.458;7.238;2022-10-18T10:50:25;50.03;;;32.17;;
7883;SDS011;3987;51.458;7.238;2022-10-18T10:52:52;48.23;;;32.43;;
7883;SDS011;3987;51.458;7.238;2022-10-18T10:55:22;47.70;;;33.00;;
7883;SDS011;3987;51.458;7.238;2022-10-18T10:57:52;51.83;;;33.50;;
7883;SDS011;3987;51.458;7.238;2022-10-18T11:00:34;50.33;;;32.33;;
7883;SDS011;3987;51.458;7.238;2022-10-18T11:05:41;45.67;;;31.40;;
7883;SDS011;3987;51.458;7.238;2022-10-18T11:08:12;50.10;;;30.77;;
7883;SDS011;3987;51.458;7.238;2022-10-18T11:16:55;45.43;;;30.60;;
7883;SDS011;3987;51.458;7.238;2022-10-18T11:18:55;46.97;;;30.63;;
7883;SDS011;3987;51.458;7.238;2022-10-18T11:21:21;43.67;;;29.23;;
7883;SDS011;3987;51.458;7.238;2022-10-18T11:23:49;44.07;;;29.40;;
7883;SDS011;3987;51.458;7.238;2022-10-18T11:26:22;34.10;;;26.37;;
7883;SDS011;3987;51.458;7.238;2022-10-18T11:38:45;26.40;;;22.13;;
7883;SDS011;3987;51.458;7.238;2022-10-18T11:44:02;26.40;;;22.33;;
7883;SDS011;3987;51.458;7.238;2022-10-18T11:46:44;30.83;;;24.13;;
7883;SDS011;3987;51.458;7.238;2022-10-18T11:52:01;26.47;;;21.00;;
7883;SDS011;3987;51.458;7.238;2022-10-18T11:57:59;25.50;;;20.40;;
7883;SDS011;3987;51.458;7.238;2022-10-18T12:03:49;24.50;;;19.00;;
7883;SDS011;3987;51.458;7.238;2022-10-18T12:06:25;26.00;;;20.43;;
7883;SDS011;3987;51.458;7.238;2022-10-18T12:08:56;23.90;;;19.50;;
7883;SDS011;3987;51.458;7.238;2022-10-18T12:11:27;20.13;;;17.83;;
7883;SDS011;3987;51.458;7.238;2022-10-18T12:13:56;21.77;;;18.93;;
7883;SDS011;3987;51.458;7.238;2022-10-18T12:16:26;25.50;;;18.20;;
7883;SDS011;3987;51.458;7.238;2022-10-18T12:18:55;20.70;;;17.73;;
7883;SDS011;3987;51.458;7.238;2022-10-18T12:21:22;27.43;;;19.30;;
7883;SDS011;3987;51.458;7.238;2022-10-18T12:23:54;22.10;;;19.10;;
7883;SDS011;3987;51.458;7.238;2022-10-18T12:26:22;19.20;;;17.17;;
7883;SDS011;3987;51.458;7.238;2022-10-18T12:28:50;16.43;;;14.73;;
7883;SDS011;3987;51.458;7.238;2022-10-18T12:31:36;10.00;;;8.90;;
7883;SDS011;3987;51.458;7.238;2022-10-18T12:39:38;9.10;;;8.30;;
7883;SDS011;3987;51.458;7.238;2022-10-18T12:42:13;8.70;;;8.00;;
7883;SDS011;3987;51.458;7.238;2022-10-18T12:44:59;7.93;;;7.13;;
7883;SDS011;3987;51.458;7.238;2022-10-18T12:47:25;8.67;;;7.10;;
7883;SDS011;3987;51.458;7.238;2022-10-18T12:49:59;7.60;;;7.10;;
7883;SDS011;3987;51.458;7.238;2022-10-18T12:52:28;11.70;;;6.93;;
7883;SDS011;3987;51.458;7.238;2022-10-18T13:16:44;7.10;;;4.07;;
7883;SDS011;3987;51.458;7.238;2022-10-18T13:21:57;4.50;;;4.23;;
7883;SDS011;3987;51.458;7.238;2022-10-18T13:24:33;4.07;;;3.77;;
7883;SDS011;3987;51.458;7.238;2022-10-18T13:38:15;4.50;;;3.07;;
7883;SDS011;3987;51.458;7.238;2022-10-18T13:41:13;3.03;;;2.83;;
7883;SDS011;3987;51.458;7.238;2022-10-18T13:51:46;3.00;;;2.90;;
7883;SDS011;3987;51.458;7.238;2022-10-18T13:54:56;4.93;;;3.57;;
7883;SDS011;3987;51.458;7.238;2022-10-18T14:03:04;2.63;;;1.80;;
7883;SDS011;3987;51.458;7.238;2022-10-18T14:11:05;3.10;;;1.80;;
7883;SDS011;3987;51.458;7.238;2022-10-18T14:13:37;5.10;;;2.40;;
7883;SDS011;3987;51.458;7.238;2022-10-18T14:16:13;2.47;;;2.03;;
7883;SDS011;3987;51.458;7.238;2022-10-18T14:19:00;2.17;;;2.07;;
7883;SDS011;3987;51.458;7.238;2022-10-18T14:21:30;2.60;;;2.10;;
7883;SDS011;3987;51.458;7.238;2022-10-18T14:23:59;1.73;;;1.63;;
7883;SDS011;3987;51.458;7.238;2022-10-18T14:26:24;3.03;;;2.27;;
7883;SDS011;3987;51.458;7.238;2022-10-18T14:29:03;2.53;;;1.97;;
7883;SDS011;3987;51.458;7.238;2022-10-18T14:31:30;1.93;;;1.70;;
7883;SDS011;3987;51.458;7.238;2022-10-18T14:33:55;4.93;;;2.20;;
7883;SDS011;3987;51.458;7.238;2022-10-18T14:36:22;3.63;;;2.00;;
7883;SDS011;3987;51.458;7.238;2022-10-18T14:38:56;3.77;;;1.83;;
7883;SDS011;3987;51.458;7.238;2022-10-18T14:41:28;3.17;;;1.40;;
7883;SDS011;3987;51.458;7.238;2022-10-18T14:46:40;2.63;;;1.27;;
7883;SDS011;3987;51.458;7.238;2022-10-18T14:49:10;1.90;;;1.60;;
7883;SDS011;3987;51.458;7.238;2022-10-18T14:51:36;3.20;;;2.20;;
7883;SDS011;3987;51.458;7.238;2022-10-18T14:54:03;1.73;;;1.47;;
7883;SDS011;3987;51.458;7.238;2022-10-18T14:56:39;3.90;;;1.30;;
7883;SDS011;3987;51.458;7.238;2022-10-18T14:59:09;2.80;;;1.87;;
7883;SDS011;3987;51.458;7.238;2022-10-18T15:01:37;1.87;;;1.23;;
7883;SDS011;3987;51.458;7.238;2022-10-18T15:04:09;2.93;;;1.23;;
7883;SDS011;3987;51.458;7.238;2022-10-18T15:06:35;5.90;;;1.57;;
7883;SDS011;3987;51.458;7.238;2022-10-18T15:09:07;4.53;;;1.50;;
7883;SDS011;3987;51.458;7.238;2022-10-18T15:11:34;4.63;;;2.07;;
7883;SDS011;3987;51.458;7.238;2022-10-18T15:14:00;4.00;;;1.60;;
7883;SDS011;3987;51.458;7.238;2022-10-18T15:16:30;8.73;;;2.40;;
7883;SDS011;3987;51.458;7.238;2022-10-18T15:19:00;6.47;;;2.23;;
7883;SDS011;3987;51.458;7.238;2022-10-18T15:21:28;5.93;;;2.10;;
7883;SDS011;3987;51.458;7.238;2022-10-18T15:23:53;5.13;;;2.20;;
7883;SDS011;3987;51.458;7.238;2022-10-18T15:26:20;5.77;;;2.33;;
7883;SDS011;3987;51.458;7.238;2022-10-18T15:28:51;6.90;;;1.90;;
7883;SDS011;3987;51.458;7.238;2022-10-18T15:31:31;5.60;;;2.00;;
7883;SDS011;3987;51.458;7.238;2022-10-18T15:34:32;1.93;;;1.83;;
7883;SDS011;3987;51.458;7.238;2022-10-18T15:36:51;5.20;;;2.03;;
7883;SDS011;3987;51.458;7.238;2022-10-18T15:41:51;4.40;;;1.80;;
7883;SDS011;3987;51.458;7.238;2022-10-18T15:44:22;2.87;;;1.53;;
7883;SDS011;3987;51.458;7.238;2022-10-18T15:46:49;5.33;;;1.87;;
7883;SDS011;3987;51.458;7.238;2022-10-18T15:49:38;4.60;;;1.40;;
7883;SDS011;3987;51.458;7.238;2022-10-18T15:54:34;2.80;;;1.70;;
7883;SDS011;3987;51.458;7.238;2022-10-18T15:57:05;6.60;;;1.07;;
7883;SDS011;3987;51.458;7.238;2022-10-18T15:59:31;4.47;;;1.40;;
7883;SDS011;3987;51.458;7.238;2022-10-18T16:01:57;2.87;;;1.30;;
7883;SDS011;3987;51.458;7.238;2022-10-18T16:06:52;3.27;;;1.47;;
7883;SDS011;3987;51.458;7.238;2022-10-18T16:09:19;3.37;;;1.47;;
7883;SDS011;3987;51.458;7.238;2022-10-18T16:11:46;4.53;;;1.97;;
7883;SDS011;3987;51.458;7.238;2022-10-18T16:14:14;1.63;;;1.63;;
7883;SDS011;3987;51.458;7.238;2022-10-18T16:16:39;3.13;;;1.63;;
7883;SDS011;3987;51.458;7.238;2022-10-18T16:19:05;4.40;;;1.40;;
7883;SDS011;3987;51.458;7.238;2022-10-18T16:21:32;4.87;;;1.60;;
7883;SDS011;3987;51.458;7.238;2022-10-18T16:24:02;5.33;;;2.17;;
7883;SDS011;3987;51.458;7.238;2022-10-18T16:26:28;6.80;;;1.83;;
7883;SDS011;3987;51.458;7.238;2022-10-18T16:28:53;3.33;;;1.77;;
7883;SDS011;3987;51.458;7.238;2022-10-18T16:31:21;3.57;;;1.73;;
7883;SDS011;3987;51.458;7.238;2022-10-18T16:33:51;5.13;;;2.00;;
7883;SDS011;3987;51.458;7.238;2022-10-18T16:36:18;3.57;;;2.00;;
7883;SDS011;3987;51.458;7.238;2022-10-18T16:38:45;4.20;;;1.70;;
7883;SDS011;3987;51.458;7.238;2022-10-18T16:41:11;2.47;;;2.30;;
7883;SDS011;3987;51.458;7.238;2022-10-18T16:43:40;4.07;;;2.00;;
7883;SDS011;3987;51.458;7.238;2022-10-18T16:46:06;5.00;;;2.03;;
7883;SDS011;3987;51.458;7.238;2022-10-18T16:48:33;4.77;;;2.17;;
7883;SDS011;3987;51.458;7.238;2022-10-18T16:50:59;5.77;;;2.23;;
7883;SDS011;3987;51.458;7.238;2022-10-18T16:53:25;3.77;;;2.00;;
7883;SDS011;3987;51.458;7.238;2022-10-18T16:55:53;3.40;;;2.27;;
7883;SDS011;3987;51.458;7.238;2022-10-18T16:58:21;2.63;;;2.00;;
7883;SDS011;3987;51.458;7.238;2022-10-18T17:00:47;3.60;;;2.30;;
7883;SDS011;3987;51.458;7.238;2022-10-18T17:03:12;5.27;;;3.30;;
7883;SDS011;3987;51.458;7.238;2022-10-18T17:05:38;3.20;;;2.73;;
7883;SDS011;3987;51.458;7.238;2022-10-18T17:08:04;4.53;;;2.70;;
7883;SDS011;3987;51.458;7.238;2022-10-18T17:10:30;3.00;;;2.80;;
7883;SDS011;3987;51.458;7.238;2022-10-18T17:12:55;3.80;;;2.67;;
7883;SDS011;3987;51.458;7.238;2022-10-18T17:15:21;3.10;;;2.77;;
7883;SDS011;3987;51.458;7.238;2022-10-18T17:17:46;11.40;;;2.40;;
7883;SDS011;3987;51.458;7.238;2022-10-18T17:20:18;4.40;;;2.90;;
7883;SDS011;3987;51.458;7.238;2022-10-18T17:22:45;4.47;;;3.27;;
7883;SDS011;3987;51.458;7.238;2022-10-18T17:25:11;7.07;;;3.47;;
7883;SDS011;3987;51.458;7.238;2022-10-18T17:27:36;7.17;;;4.70;;
7883;SDS011;3987;51.458;7.238;2022-10-18T17:30:01;7.83;;;4.37;;
7883;SDS011;3987;51.458;7.238;2022-10-18T17:32:27;5.07;;;4.50;;
7883;SDS011;3987;51.458;7.238;2022-10-18T17:34:52;10.93;;;7.33;;
7883;SDS011;3987;51.458;7.238;2022-10-18T17:37:18;11.27;;;8.47;;
7883;SDS011;3987;51.458;7.238;2022-10-18T17:39:43;9.30;;;8.30;;
7883;SDS011;3987;51.458;7.238;2022-10-18T17:42:08;11.60;;;9.00;;
7883;SDS011;3987;51.458;7.238;2022-10-18T17:44:34;10.03;;;7.70;;
7883;SDS011;3987;51.458;7.238;2022-10-18T17:46:59;11.27;;;7.40;;
7883;SDS011;3987;51.458;7.238;2022-10-18T17:49:25;15.27;;;7.73;;
7883;SDS011;3987;51.458;7.238;2022-10-18T17:51:50;10.60;;;7.00;;
7883;SDS011;3987;51.458;7.238;2022-10-18T17:54:15;8.03;;;6.10;;
7883;SDS011;3987;51.458;7.238;2022-10-18T17:56:41;10.53;;;7.00;;